sensor_id;sensor_type;location;lat;lon;timestamp;pressure;altitude;pressure_sealevel;temperature;humidity
23643;BME280;11998;55.788;37.572;2023-02-19T00:00:36;97518.25;;;-5.88;100.00
23643;BME280;11998;55.788;37.572;2023-02-19T00:01:39;97523.41;;;-5.88;100.00
23643;BME280;11998;55.788;37.572;2023-02-19T00:02:40;97519.13;;;-5.89;100.00
23643;BME280;11998;55.788;37.572;2023-02-19T00:03:47;97521.69;;;-5.89;100.00
23643;BME280;11998;55.788;37.572;2023-02-19T00:04:48;97521.72;;;-5.86;100.00
23643;BME280;11998;55.788;37.572;2023-02-19T00:05:49;97514.00;;;-5.84;100.00
23643;BME280;11998;55.788;37.572;2023-02-19T00:06:50;97516.59;;;-5.83;100.00
23643;BME280;11998;55.788;37.572;2023-02-19T00:07:50;97533.75;;;-5.85;100.00
23643;BME280;11998;55.788;37.572;2023-02-19T00:08:51;97522.56;;;-5.87;100.00
23643;BME280;11998;55.788;37.572;2023-02-19T00:09:51;97528.59;;;-5.91;100.00
23643;BME280;11998;55.788;37.572;2023-02-19T00:10:52;97520.00;;;-5.87;100.00
23643;BME280;11998;55.788;37.572;2023-02-19T00:11:53;97520.84;;;-5.88;100.00
23643;BME280;11998;55.788;37.572;2023-02-19T00:12:54;97526.84;;;-5.89;100.00
23643;BME280;11998;55.788;37.572;2023-02-19T00:13:56;97526.00;;;-5.93;100.00
23643;BME280;11998;55.788;37.572;2023-02-19T00:14:57;97513.13;;;-5.91;100.00
23643;BME280;11998;55.788;37.572;2023-02-19T00:15:57;97511.41;;;-5.90;100.00
23643;BME280;11998;55.788;37.572;2023-02-19T00:16:58;97520.00;;;-5.90;100.00
23643;BME280;11998;55.788;37.572;2023-02-19T00:17:58;97511.38;;;-5.95;100.00
23643;BME280;11998;55.788;37.572;2023-02-19T00:19:00;97521.69;;;-5.92;100.00
23643;BME280;11998;55.788;37.572;2023-02-19T00:20:01;97516.53;;;-5.95;100.00
23643;BME280;11998;55.788;37.572;2023-02-19T00:21:02;97519.03;;;-5.98;100.00
23643;BME280;11998;55.788;37.572;2023-02-19T00:22:03;97508.75;;;-5.97;100.00
23643;BME280;11998;55.788;37.572;2023-02-19T00:23:03;97502.75;;;-5.96;100.00
23643;BME280;11998;55.788;37.572;2023-02-19T00:24:05;97516.44;;;-6.01;100.00
23643;BME280;11998;55.788;37.572;2023-02-19T00:25:06;97512.13;;;-6.04;100.00
23643;BME280;11998;55.788;37.572;2023-02-19T00:26:09;97511.31;;;-5.98;100.00
23643;BME280;11998;55.788;37.572;2023-02-19T00:27:10;97513.84;;;-6.03;100.00
23643;BME280;11998;55.788;37.572;2023-02-19T00:28:10;97507.75;;;-6.09;100.00
23643;BME280;11998;55.788;37.572;2023-02-19T00:29:16;97500.94;;;-6.07;100.00
23643;BME280;11998;55.788;37.572;2023-02-19T00:30:17;97506.97;;;-6.05;100.00
23643;BME280;11998;55.788;37.572;2023-02-19T00:31:21;97507.84;;;-6.03;100.00
23643;BME280;11998;55.788;37.572;2023-02-19T00:32:22;97501.84;;;-6.01;100.00
23643;BME280;11998;55.788;37.572;2023-02-19T00:33:22;97500.97;;;-6.01;100.00
23643;BME280;11998;55.788;37.572;2023-02-19T00:34:23;97500.97;;;-6.01;100.00
23643;BME280;11998;55.788;37.572;2023-02-19T00:35:23;97513.09;;;-5.94;100.00
23643;BME280;11998;55.788;37.572;2023-02-19T00:36:25;97497.56;;;-6.00;100.00
23643;BME280;11998;55.788;37.572;2023-02-19T00:37:25;97501.06;;;-5.95;100.00
23643;BME280;11998;55.788;37.572;2023-02-19T00:38:26;97507.84;;;-6.00;100.00
23643;BME280;11998;55.788;37.572;2023-02-19T00:39:27;97498.34;;;-6.07;100.00
23643;BME280;11998;55.788;37.572;2023-02-19T00:40:27;97506.09;;;-6.04;100.00
23643;BME280;11998;55.788;37.572;2023-02-19T00:41:28;97500.09;;;-6.05;100.00
23643;BME280;11998;55.788;37.572;2023-02-19T00:42:29;97512.13;;;-6.02;100.00
23643;BME280;11998;55.788;37.572;2023-02-19T00:43:30;97506.97;;;-6.05;100.00
23643;BME280;11998;55.788;37.572;2023-02-19T00:44:30;97501.81;;;-6.05;100.00
23643;BME280;11998;55.788;37.572;2023-02-19T00:45:31;97511.19;;;-6.09;100.00
23643;BME280;11998;55.788;37.572;2023-02-19T00:46:38;97499.16;;;-6.08;100.00
23643;BME280;11998;55.788;37.572;2023-02-19T00:47:39;97497.44;;;-6.09;100.00
23643;BME280;11998;55.788;37.572;2023-02-19T00:48:39;97495.69;;;-6.15;100.00
23643;BME280;11998;55.788;37.572;2023-02-19T00:49:40;97492.25;;;-6.12;100.00
23643;BME280;11998;55.788;37.572;2023-02-19T00:50:40;97490.50;;;-6.16;100.00
23643;BME280;11998;55.788;37.572;2023-02-19T00:51:41;97485.34;;;-6.19;100.00
23643;BME280;11998;55.788;37.572;2023-02-19T00:52:41;97493.94;;;-6.17;100.00
23643;BME280;11998;55.788;37.572;2023-02-19T00:53:42;97490.41;;;-6.23;100.00
23643;BME280;11998;55.788;37.572;2023-02-19T00:54:42;97483.56;;;-6.21;100.00
23643;BME280;11998;55.788;37.572;2023-02-19T00:55:43;97487.00;;;-6.22;100.00
23643;BME280;11998;55.788;37.572;2023-02-19T00:56:44;97485.25;;;-6.26;100.00
23643;BME280;11998;55.788;37.572;2023-02-19T00:57:44;97492.97;;;-6.24;100.00
23643;BME280;11998;55.788;37.572;2023-02-19T00:58:45;97480.13;;;-6.23;100.00
23643;BME280;11998;55.788;37.572;2023-02-19T00:59:46;97474.09;;;-6.23;100.00
23643;BME280;11998;55.788;37.572;2023-02-19T01:00:46;97464.75;;;-6.16;100.00
23643;BME280;11998;55.788;37.572;2023-02-19T01:01:47;97468.13;;;-6.21;100.00
23643;BME280;11998;55.788;37.572;2023-02-19T01:02:48;97466.44;;;-6.18;100.00
23643;BME280;11998;55.788;37.572;2023-02-19T01:03:49;97467.31;;;-6.16;100.00
23643;BME280;11998;55.788;37.572;2023-02-19T01:04:50;97473.31;;;-6.19;100.00
23643;BME280;11998;55.788;37.572;2023-02-19T01:05:51;97471.59;;;-6.18;100.00
23643;BME280;11998;55.788;37.572;2023-02-19T01:06:52;97457.88;;;-6.19;100.00
23643;BME280;11998;55.788;37.572;2023-02-19T01:07:52;97468.09;;;-6.24;100.00
23643;BME280;11998;55.788;37.572;2023-02-19T01:08:53;97474.06;;;-6.29;100.00
23643;BME280;11998;55.788;37.572;2023-02-19T01:09:53;97462.06;;;-6.27;100.00
23643;BME280;11998;55.788;37.572;2023-02-19T01:10:54;97474.06;;;-6.29;100.00
23643;BME280;11998;55.788;37.572;2023-02-19T01:11:54;97452.59;;;-6.30;100.00
23643;BME280;11998;55.788;37.572;2023-02-19T01:12:55;97450.78;;;-6.35;100.00
23643;BME280;11998;55.788;37.572;2023-02-19T01:13:57;97454.22;;;-6.35;100.00
23643;BME280;11998;55.788;37.572;2023-02-19T01:14:58;97455.91;;;-6.40;100.00
23643;BME280;11998;55.788;37.572;2023-02-19T01:16:09;97469.63;;;-6.41;100.00
23643;BME280;11998;55.788;37.572;2023-02-19T01:17:11;97456.72;;;-6.42;100.00
23643;BME280;11998;55.788;37.572;2023-02-19T01:18:12;97454.19;;;-6.41;100.00
23643;BME280;11998;55.788;37.572;2023-02-19T01:19:13;97452.34;;;-6.48;100.00
23643;BME280;11998;55.788;37.572;2023-02-19T01:20:13;97454.06;;;-6.50;100.00
23643;BME280;11998;55.788;37.572;2023-02-19T01:21:17;97456.66;;;-6.45;100.00
23643;BME280;11998;55.788;37.572;2023-02-19T01:22:17;97458.47;;;-6.41;100.00
23643;BME280;11998;55.788;37.572;2023-02-19T01:23:18;97448.16;;;-6.41;100.00
23643;BME280;11998;55.788;37.572;2023-02-19T01:24:18;97461.03;;;-6.43;100.00
23643;BME280;11998;55.788;37.572;2023-02-19T01:25:19;97466.06;;;-6.49;100.00
23643;BME280;11998;55.788;37.572;2023-02-19T01:26:26;97460.94;;;-6.49;100.00
23643;BME280;11998;55.788;37.572;2023-02-19T01:27:27;97452.34;;;-6.48;100.00
23643;BME280;11998;55.788;37.572;2023-02-19T01:28:28;97455.75;;;-6.52;100.00
23643;BME280;11998;55.788;37.572;2023-02-19T01:29:29;97448.94;;;-6.47;100.00
23643;BME280;11998;55.788;37.572;2023-02-19T01:30:29;97466.16;;;-6.43;100.00
23643;BME280;11998;55.788;37.572;2023-02-19T01:31:30;97448.94;;;-6.47;100.00
23643;BME280;11998;55.788;37.572;2023-02-19T01:32:30;97457.59;;;-6.42;100.00
23643;BME280;11998;55.788;37.572;2023-02-19T01:33:31;97443.78;;;-6.47;100.00
23643;BME280;11998;55.788;37.572;2023-02-19T01:34:32;97460.06;;;-6.49;100.00
23643;BME280;11998;55.788;37.572;2023-02-19T01:35:37;97438.59;;;-6.50;100.00
23643;BME280;11998;55.788;37.572;2023-02-19T01:36:37;97439.44;;;-6.53;100.00
23643;BME280;11998;55.788;37.572;2023-02-19T01:37:38;97445.47;;;-6.49;100.00
23643;BME280;11998;55.788;37.572;2023-02-19T01:38:38;97454.94;;;-6.48;100.00
23643;BME280;11998;55.788;37.572;2023-02-19T01:39:39;97443.84;;;-6.44;100.00
23643;BME280;11998;55.788;37.572;2023-02-19T01:40:39;97443.84;;;-6.44;100.00
23643;BME280;11998;55.788;37.572;2023-02-19T01:41:40;97432.63;;;-6.47;100.00
23643;BME280;11998;55.788;37.572;2023-02-19T01:42:42;97444.56;;;-6.54;100.00
23643;BME280;11998;55.788;37.572;2023-02-19T01:46:44;97440.22;;;-6.58;100.00
23643;BME280;11998;55.788;37.572;2023-02-19T01:47:48;97438.50;;;-6.59;100.00
23643;BME280;11998;55.788;37.572;2023-02-19T01:48:52;97437.72;;;-6.55;100.00
23643;BME280;11998;55.788;37.572;2023-02-19T01:49:54;97426.59;;;-6.51;100.00
23643;BME280;11998;55.788;37.572;2023-02-19T01:50:59;97433.50;;;-6.45;100.00
23643;BME280;11998;55.788;37.572;2023-02-19T01:52:18;97434.44;;;-6.40;100.00
23643;BME280;11998;55.788;37.572;2023-02-19T01:53:23;97426.69;;;-6.42;100.00
23643;BME280;11998;55.788;37.572;2023-02-19T01:54:28;97424.16;;;-6.37;100.00
23643;BME280;11998;55.788;37.572;2023-02-19T01:55:32;97439.50;;;-6.46;100.00
23643;BME280;11998;55.788;37.572;2023-02-19T01:56:33;97430.94;;;-6.45;100.00
23643;BME280;11998;55.788;37.572;2023-02-19T01:57:39;97443.78;;;-6.47;100.00
23643;BME280;11998;55.788;37.572;2023-02-19T01:58:41;97424.84;;;-6.52;100.00
23643;BME280;11998;55.788;37.572;2023-02-19T01:59:42;97432.56;;;-6.55;100.00
23643;BME280;11998;55.788;37.572;2023-02-19T02:00:43;97429.97;;;-6.57;100.00
23643;BME280;11998;55.788;37.572;2023-02-19T02:01:43;97433.34;;;-6.58;100.00
23643;BME280;11998;55.788;37.572;2023-02-19T02:02:52;97438.44;;;-6.65;100.00
23643;BME280;11998;55.788;37.572;2023-02-19T02:03:54;97429.81;;;-6.69;100.00
23643;BME280;11998;55.788;37.572;2023-02-19T02:04:56;97435.84;;;-6.68;100.00
23643;BME280;11998;55.788;37.572;2023-02-19T02:07:02;97448.63;;;-6.73;100.00
23643;BME280;11998;55.788;37.572;2023-02-19T02:08:25;97437.44;;;-6.75;100.00
23643;BME280;11998;55.788;37.572;2023-02-19T02:09:44;97435.69;;;-6.79;100.00
23643;BME280;11998;55.788;37.572;2023-02-19T02:11:04;97428.00;;;-6.74;100.00
23643;BME280;11998;55.788;37.572;2023-02-19T02:12:04;97426.31;;;-6.72;100.00
23643;BME280;11998;55.788;37.572;2023-02-19T02:13:05;97443.56;;;-6.68;100.00
23643;BME280;11998;55.788;37.572;2023-02-19T02:14:06;97437.47;;;-6.73;100.00
23643;BME280;11998;55.788;37.572;2023-02-19T02:15:06;97425.47;;;-6.70;100.00
23643;BME280;11998;55.788;37.572;2023-02-19T02:17:23;97440.97;;;-6.68;100.00
23643;BME280;11998;55.788;37.572;2023-02-19T02:21:10;97422.06;;;-6.70;100.00
23643;BME280;11998;55.788;37.572;2023-02-19T02:22:17;97444.31;;;-6.74;100.00
23643;BME280;11998;55.788;37.572;2023-02-19T02:23:38;97440.03;;;-6.73;100.00
23643;BME280;11998;55.788;37.572;2023-02-19T02:24:51;97426.34;;;-6.71;100.00
23643;BME280;11998;55.788;37.572;2023-02-19T02:26:08;97430.59;;;-6.74;100.00
23643;BME280;11998;55.788;37.572;2023-02-19T02:31:25;97429.69;;;-6.79;100.00
23643;BME280;11998;55.788;37.572;2023-02-19T02:32:33;97427.13;;;-6.76;100.00
23643;BME280;11998;55.788;37.572;2023-02-19T02:34:45;97446.91;;;-6.72;100.00
23643;BME280;11998;55.788;37.572;2023-02-19T02:35:58;97446.91;;;-6.72;100.00
23643;BME280;11998;55.788;37.572;2023-02-19T02:37:00;97432.31;;;-6.73;100.00
23643;BME280;11998;55.788;37.572;2023-02-19T02:38:06;97417.72;;;-6.74;100.00
23643;BME280;11998;55.788;37.572;2023-02-19T02:39:10;97422.88;;;-6.74;100.00
23643;BME280;11998;55.788;37.572;2023-02-19T02:40:11;97424.56;;;-6.76;100.00
23643;BME280;11998;55.788;37.572;2023-02-19T02:41:13;97406.56;;;-6.75;100.00
23643;BME280;11998;55.788;37.572;2023-02-19T02:42:14;97424.56;;;-6.75;100.00
23643;BME280;11998;55.788;37.572;2023-02-19T02:43:27;97424.56;;;-6.76;100.00
23643;BME280;11998;55.788;37.572;2023-02-19T02:44:34;97415.16;;;-6.74;100.00
23643;BME280;11998;55.788;37.572;2023-02-19T02:45:35;97416.88;;;-6.73;100.00
23643;BME280;11998;55.788;37.572;2023-02-19T02:46:39;97411.72;;;-6.73;100.00
23643;BME280;11998;55.788;37.572;2023-02-19T02:47:52;97406.56;;;-6.76;100.00
23643;BME280;11998;55.788;37.572;2023-02-19T02:49:16;97405.69;;;-6.78;100.00
23643;BME280;11998;55.788;37.572;2023-02-19T02:50:24;97413.41;;;-6.78;100.00
23643;BME280;11998;55.788;37.572;2023-02-19T02:51:33;97403.97;;;-6.76;100.00
23643;BME280;11998;55.788;37.572;2023-02-19T02:52:38;97416.00;;;-6.75;100.00
23643;BME280;11998;55.788;37.572;2023-02-19T02:55:29;97410.00;;;-6.76;100.00
23643;BME280;11998;55.788;37.572;2023-02-19T02:56:33;97418.50;;;-6.82;100.00
23643;BME280;11998;55.788;37.572;2023-02-19T02:57:35;97402.13;;;-6.87;100.00
23643;BME280;11998;55.788;37.572;2023-02-19T02:58:36;97405.56;;;-6.88;100.00
23643;BME280;11998;55.788;37.572;2023-02-19T02:59:38;97423.53;;;-6.89;100.00
23643;BME280;11998;55.788;37.572;2023-02-19T03:00:42;97420.09;;;-6.91;100.00
23643;BME280;11998;55.788;37.572;2023-02-19T03:02:06;97423.53;;;-6.91;100.00
23643;BME280;11998;55.788;37.572;2023-02-19T03:03:10;97407.25;;;-6.90;100.00
23643;BME280;11998;55.788;37.572;2023-02-19T03:04:17;97405.56;;;-6.88;100.00
23643;BME280;11998;55.788;37.572;2023-02-19T03:05:22;97420.94;;;-6.91;100.00
23643;BME280;11998;55.788;37.572;2023-02-19T03:06:43;97408.09;;;-6.91;100.00
23643;BME280;11998;55.788;37.572;2023-02-19T03:07:53;97416.69;;;-6.89;100.00
23643;BME280;11998;55.788;37.572;2023-02-19T03:09:13;97415.81;;;-6.91;100.00
23643;BME280;11998;55.788;37.572;2023-02-19T03:11:36;97419.16;;;-6.95;100.00
23643;BME280;11998;55.788;37.572;2023-02-19T03:12:57;97412.34;;;-6.93;100.00
23643;BME280;11998;55.788;37.572;2023-02-19T03:14:26;97419.22;;;-6.93;100.00
23643;BME280;11998;55.788;37.572;2023-02-19T03:15:53;97420.00;;;-6.96;100.00
23643;BME280;11998;55.788;37.572;2023-02-19T03:17:19;97406.28;;;-6.98;100.00
23643;BME280;11998;55.788;37.572;2023-02-19T03:18:41;97418.28;;;-6.98;100.00
23643;BME280;11998;55.788;37.572;2023-02-19T03:20:04;97408.84;;;-6.96;100.00
23643;BME280;11998;55.788;37.572;2023-02-19T03:21:07;97418.22;;;-7.03;100.00
23643;BME280;11998;55.788;37.572;2023-02-19T03:22:22;97411.38;;;-7.01;100.00
23643;BME280;11998;55.788;37.572;2023-02-19T03:23:26;97420.81;;;-7.00;100.00
23643;BME280;11998;55.788;37.572;2023-02-19T03:24:52;97411.38;;;-7.02;100.00
23643;BME280;11998;55.788;37.572;2023-02-19T03:26:12;97420.84;;;-6.97;100.00
23643;BME280;11998;55.788;37.572;2023-02-19T03:27:15;97416.53;;;-6.99;100.00
23643;BME280;11998;55.788;37.572;2023-02-19T03:28:20;97408.84;;;-6.98;100.00
23643;BME280;11998;55.788;37.572;2023-02-19T03:29:43;97423.41;;;-7.00;100.00
23643;BME280;11998;55.788;37.572;2023-02-19T03:30:49;97403.69;;;-6.98;100.00
23643;BME280;11998;55.788;37.572;2023-02-19T03:31:54;97405.34;;;-7.03;100.00
23643;BME280;11998;55.788;37.572;2023-02-19T03:34:16;97399.34;;;-7.03;100.00
23643;BME280;11998;55.788;37.572;2023-02-19T03:35:22;97406.28;;;-6.98;100.00
23643;BME280;11998;55.788;37.572;2023-02-19T03:36:27;97395.94;;;-7.02;100.00
23643;BME280;11998;55.788;37.572;2023-02-19T03:38:16;97394.19;;;-7.05;100.00
23643;BME280;11998;55.788;37.572;2023-02-19T03:39:20;97403.63;;;-7.04;100.00
23643;BME280;11998;55.788;37.572;2023-02-19T03:40:23;97394.25;;;-7.00;100.00
23643;BME280;11998;55.788;37.572;2023-02-19T03:43:06;97405.34;;;-7.03;100.00
23643;BME280;11998;55.788;37.572;2023-02-19T03:46:35;97389.13;;;-6.99;100.00
23643;BME280;11998;55.788;37.572;2023-02-19T03:49:13;97383.09;;;-7.01;100.00
23643;BME280;11998;55.788;37.572;2023-02-19T03:50:20;97385.63;;;-7.05;100.00
23643;BME280;11998;55.788;37.572;2023-02-19T03:52:01;97399.38;;;-7.02;100.00
23643;BME280;11998;55.788;37.572;2023-02-19T03:53:28;97388.22;;;-7.01;100.00
23643;BME280;11998;55.788;37.572;2023-02-19T03:54:37;97379.66;;;-7.00;100.00
23643;BME280;11998;55.788;37.572;2023-02-19T03:58:08;97391.69;;;-6.99;100.00
23643;BME280;11998;55.788;37.572;2023-02-19T03:59:17;97395.09;;;-7.00;100.00
23643;BME280;11998;55.788;37.572;2023-02-19T04:00:25;97383.16;;;-6.95;100.00
23643;BME280;11998;55.788;37.572;2023-02-19T04:01:41;97383.13;;;-6.96;100.00
23643;BME280;11998;55.788;37.572;2023-02-19T04:04:31;97385.69;;;-6.98;100.00
23643;BME280;11998;55.788;37.572;2023-02-19T04:05:36;97382.22;;;-7.01;100.00
23643;BME280;11998;55.788;37.572;2023-02-19T04:06:40;97396.78;;;-7.02;100.00
23643;BME280;11998;55.788;37.572;2023-02-19T04:07:45;97385.66;;;-7.02;100.00
23643;BME280;11998;55.788;37.572;2023-02-19T04:08:52;97391.66;;;-7.02;100.00
23643;BME280;11998;55.788;37.572;2023-02-19T04:09:54;97385.63;;;-7.05;100.00
23643;BME280;11998;55.788;37.572;2023-02-19T04:10:57;97388.22;;;-7.01;100.00
23643;BME280;11998;55.788;37.572;2023-02-19T04:11:59;97378.00;;;-6.95;100.00
23643;BME280;11998;55.788;37.572;2023-02-19T04:13:12;97376.31;;;-6.94;100.00
23643;BME280;11998;55.788;37.572;2023-02-19T04:14:22;97374.66;;;-6.91;100.00
23643;BME280;11998;55.788;37.572;2023-02-19T04:15:27;97377.16;;;-6.95;100.00
23643;BME280;11998;55.788;37.572;2023-02-19T04:16:29;97375.50;;;-6.90;100.00
23643;BME280;11998;55.788;37.572;2023-02-19T04:17:46;97381.50;;;-6.93;100.00
23643;BME280;11998;55.788;37.572;2023-02-19T04:18:51;97381.56;;;-6.87;100.00
23643;BME280;11998;55.788;37.572;2023-02-19T04:19:55;97374.78;;;-6.82;100.00
23643;BME280;11998;55.788;37.572;2023-02-19T04:20:59;97367.88;;;-6.83;100.00
23643;BME280;11998;55.788;37.572;2023-02-19T04:22:00;97373.06;;;-6.79;100.00
23643;BME280;11998;55.788;37.572;2023-02-19T04:23:01;97375.56;;;-6.86;100.00
23643;BME280;11998;55.788;37.572;2023-02-19T04:24:05;97379.78;;;-6.91;100.00
23643;BME280;11998;55.788;37.572;2023-02-19T04:25:08;97369.47;;;-6.94;100.00
23643;BME280;11998;55.788;37.572;2023-02-19T04:26:09;97381.50;;;-6.93;100.00
23643;BME280;11998;55.788;37.572;2023-02-19T04:27:11;97368.66;;;-6.88;100.00
23643;BME280;11998;55.788;37.572;2023-02-19T04:28:13;97380.66;;;-6.89;100.00
23643;BME280;11998;55.788;37.572;2023-02-19T04:29:14;97371.22;;;-6.90;100.00
23643;BME280;11998;55.788;37.572;2023-02-19T04:30:15;97362.69;;;-6.86;100.00
23643;BME280;11998;55.788;37.572;2023-02-19T04:31:16;97366.94;;;-6.91;100.00
23643;BME280;11998;55.788;37.572;2023-02-19T04:32:16;97370.28;;;-6.96;100.00
23643;BME280;11998;55.788;37.572;2023-02-19T04:33:17;97359.19;;;-6.94;100.00
23643;BME280;11998;55.788;37.572;2023-02-19T04:34:17;97377.13;;;-6.97;100.00
23643;BME280;11998;55.788;37.572;2023-02-19T04:35:18;97379.75;;;-6.94;100.00
23643;BME280;11998;55.788;37.572;2023-02-19T04:36:18;97360.84;;;-6.96;100.00
23643;BME280;11998;55.788;37.572;2023-02-19T04:37:19;97382.34;;;-6.94;100.00
23643;BME280;11998;55.788;37.572;2023-02-19T04:38:19;97360.84;;;-6.96;100.00
23643;BME280;11998;55.788;37.572;2023-02-19T04:39:20;97382.28;;;-6.95;100.00
23643;BME280;11998;55.788;37.572;2023-02-19T04:40:20;97369.41;;;-6.97;100.00
23643;BME280;11998;55.788;37.572;2023-02-19T04:41:21;97365.13;;;-6.96;100.00
23643;BME280;11998;55.788;37.572;2023-02-19T04:42:21;97376.34;;;-6.93;100.00
23643;BME280;11998;55.788;37.572;2023-02-19T04:43:22;97373.69;;;-6.99;100.00
23643;BME280;11998;55.788;37.572;2023-02-19T04:44:22;97370.22;;;-7.01;100.00
23643;BME280;11998;55.788;37.572;2023-02-19T04:45:23;97360.81;;;-6.99;100.00
23643;BME280;11998;55.788;37.572;2023-02-19T04:46:23;97366.84;;;-6.97;100.00
23643;BME280;11998;55.788;37.572;2023-02-19T04:47:24;97359.97;;;-6.98;100.00
23643;BME280;11998;55.788;37.572;2023-02-19T04:48:25;97361.69;;;-6.97;100.00
23643;BME280;11998;55.788;37.572;2023-02-19T04:49:25;97371.13;;;-6.96;100.00
23643;BME280;11998;55.788;37.572;2023-02-19T04:50:26;97357.41;;;-6.98;100.00
23643;BME280;11998;55.788;37.572;2023-02-19T04:51:26;97366.06;;;-6.93;100.00
23643;BME280;11998;55.788;37.572;2023-02-19T04:52:27;97343.84;;;-6.85;100.00
23643;BME280;11998;55.788;37.572;2023-02-19T04:53:27;97364.41;;;-6.85;100.00
23643;BME280;11998;55.788;37.572;2023-02-19T04:54:28;97360.16;;;-6.83;100.00
23643;BME280;11998;55.788;37.572;2023-02-19T04:55:28;97351.56;;;-6.83;100.00
23643;BME280;11998;55.788;37.572;2023-02-19T04:56:29;97358.44;;;-6.82;100.00
23643;BME280;11998;55.788;37.572;2023-02-19T04:57:29;97367.06;;;-6.82;100.00
23643;BME280;11998;55.788;37.572;2023-02-19T04:58:30;97353.34;;;-6.79;100.00
23643;BME280;11998;55.788;37.572;2023-02-19T04:59:30;97355.09;;;-6.75;100.00
23643;BME280;11998;55.788;37.572;2023-02-19T05:00:31;97363.72;;;-6.71;100.00
23643;BME280;11998;55.788;37.572;2023-02-19T05:01:33;97359.47;;;-6.69;100.00
23643;BME280;11998;55.788;37.572;2023-02-19T05:02:33;97360.25;;;-6.75;100.00
23643;BME280;11998;55.788;37.572;2023-02-19T05:03:35;97354.31;;;-6.69;100.00
23643;BME280;11998;55.788;37.572;2023-02-19T05:04:35;97351.66;;;-6.77;100.00
23643;BME280;11998;55.788;37.572;2023-02-19T05:05:36;97356.84;;;-6.71;100.00
23643;BME280;11998;55.788;37.572;2023-02-19T05:06:36;97360.28;;;-6.72;100.00
23643;BME280;11998;55.788;37.572;2023-02-19T05:07:37;97354.34;;;-6.66;100.00
23643;BME280;11998;55.788;37.572;2023-02-19T05:08:40;97349.97;;;-6.73;100.00
23643;BME280;11998;55.788;37.572;2023-02-19T05:09:40;97358.56;;;-6.70;100.00
23643;BME280;11998;55.788;37.572;2023-02-19T05:10:41;97375.72;;;-6.72;100.00
23643;BME280;11998;55.788;37.572;2023-02-19T05:11:41;97351.69;;;-6.72;100.00
23643;BME280;11998;55.788;37.572;2023-02-19T05:12:42;97351.69;;;-6.74;100.00
23643;BME280;11998;55.788;37.572;2023-02-19T05:13:42;97352.53;;;-6.73;100.00
23643;BME280;11998;55.788;37.572;2023-02-19T05:14:43;97349.13;;;-6.72;100.00
23643;BME280;11998;55.788;37.572;2023-02-19T05:15:53;97351.63;;;-6.78;100.00
23643;BME280;11998;55.788;37.572;2023-02-19T05:16:54;97348.94;;;-6.88;100.00
23643;BME280;11998;55.788;37.572;2023-02-19T05:17:54;97348.13;;;-6.84;100.00
23643;BME280;11998;55.788;37.572;2023-02-19T05:18:55;97355.94;;;-6.77;100.00
23643;BME280;11998;55.788;37.572;2023-02-19T05:19:55;97365.38;;;-6.78;100.00
23643;BME280;11998;55.788;37.572;2023-02-19T05:20:57;97354.25;;;-6.75;100.00
23643;BME280;11998;55.788;37.572;2023-02-19T05:21:58;97345.69;;;-6.71;100.00
23643;BME280;11998;55.788;37.572;2023-02-19T05:22:58;97349.13;;;-6.72;100.00
23643;BME280;11998;55.788;37.572;2023-02-19T05:23:59;97352.50;;;-6.76;100.00
23643;BME280;11998;55.788;37.572;2023-02-19T05:24:59;97343.91;;;-6.78;100.00
23643;BME280;11998;55.788;37.572;2023-02-19T05:26:08;97340.41;;;-6.84;100.00
23643;BME280;11998;55.788;37.572;2023-02-19T05:27:08;97342.22;;;-6.76;100.00
23643;BME280;11998;55.788;37.572;2023-02-19T05:28:09;97333.63;;;-6.78;100.00
23643;BME280;11998;55.788;37.572;2023-02-19T05:29:19;97340.53;;;-6.74;100.00
23643;BME280;11998;55.788;37.572;2023-02-19T05:30:19;97333.63;;;-6.78;100.00
23643;BME280;11998;55.788;37.572;2023-02-19T05:31:20;97337.13;;;-6.70;100.00
23643;BME280;11998;55.788;37.572;2023-02-19T05:32:21;97345.69;;;-6.71;100.00
23643;BME280;11998;55.788;37.572;2023-02-19T05:33:23;97340.53;;;-6.74;100.00
23643;BME280;11998;55.788;37.572;2023-02-19T05:34:24;97331.97;;;-6.73;100.00
23643;BME280;11998;55.788;37.572;2023-02-19T05:35:24;97325.97;;;-6.72;100.00
23643;BME280;11998;55.788;37.572;2023-02-19T05:36:25;97330.22;;;-6.74;100.00
23643;BME280;11998;55.788;37.572;2023-02-19T05:37:26;97335.41;;;-6.71;100.00
23643;BME280;11998;55.788;37.572;2023-02-19T05:38:26;97334.56;;;-6.70;100.00
23643;BME280;11998;55.788;37.572;2023-02-19T05:39:27;97335.50;;;-6.65;100.00
23643;BME280;11998;55.788;37.572;2023-02-19T05:40:27;97326.91;;;-6.67;100.00
23643;BME280;11998;55.788;37.572;2023-02-19T05:41:29;97333.78;;;-6.63;100.00
23643;BME280;11998;55.788;37.572;2023-02-19T05:42:29;97334.63;;;-6.64;100.00
23643;BME280;11998;55.788;37.572;2023-02-19T05:43:30;97323.47;;;-6.65;100.00
23643;BME280;11998;55.788;37.572;2023-02-19T05:44:30;97326.91;;;-6.64;100.00
23643;BME280;11998;55.788;37.572;2023-02-19T05:45:31;97326.91;;;-6.67;100.00
23643;BME280;11998;55.788;37.572;2023-02-19T05:46:32;97334.53;;;-6.75;100.00
23643;BME280;11998;55.788;37.572;2023-02-19T05:47:32;97330.22;;;-6.77;100.00
23643;BME280;11998;55.788;37.572;2023-02-19T05:48:33;97343.94;;;-6.75;100.00
23643;BME280;11998;55.788;37.572;2023-02-19T05:49:34;97321.63;;;-6.76;100.00
23643;BME280;11998;55.788;37.572;2023-02-19T05:50:35;97323.47;;;-6.66;100.00
23643;BME280;11998;55.788;37.572;2023-02-19T05:51:36;97322.66;;;-6.62;100.00
23643;BME280;11998;55.788;37.572;2023-02-19T05:52:38;97326.97;;;-6.58;100.00
23643;BME280;11998;55.788;37.572;2023-02-19T05:53:39;97329.50;;;-6.61;100.00
23643;BME280;11998;55.788;37.572;2023-02-19T05:54:39;97325.28;;;-6.56;100.00
23643;BME280;11998;55.788;37.572;2023-02-19T05:55:40;97325.25;;;-6.59;100.00
23643;BME280;11998;55.788;37.572;2023-02-19T05:56:41;97334.66;;;-6.63;100.00
23643;BME280;11998;55.788;37.572;2023-02-19T05:57:43;97321.78;;;-6.61;100.00